Time;durP1;ratioP1;P1;durP2;ratioP2;P2;SDS_P1;SDS_P2;PMS_P1;PMS_P2;Temp;Humidity;BMP_temperature;BMP_pressure;BME280_temperature;BME280_humidity;BME280_pressure;Samples;Min_cycle;Max_cycle;Signal;HPM_P1;HPM_P2
2022/03/17 00:00:02;;;;;;;54.40;40.07;;;;;;;7.16;85.82;100246.56;5070824;28;20235;-57
2022/03/17 00:02:29;;;;;;;53.20;40.17;;;;;;;7.20;86.46;100240.75;5070990;28;20225;-57
2022/03/17 00:04:57;;;;;;;51.23;39.63;;;;;;;7.27;86.32;100241.91;5071261;28;20199;-57
2022/03/17 00:07:24;;;;;;;57.92;41.08;;;;;;;7.29;86.47;100233.47;5070655;28;20440;-57
2022/03/17 00:09:51;;;;;;;53.23;37.83;;;;;;;7.25;86.06;100233.31;5070821;28;20196;-58
2022/03/17 00:12:18;;;;;;;54.90;38.73;;;;;;;7.27;85.49;100229.13;5070908;28;20696;-57
2022/03/17 00:14:45;;;;;;;50.50;36.33;;;;;;;7.27;84.68;100239.34;5070864;28;20194;-58
2022/03/17 00:17:12;;;;;;;48.63;37.13;;;;;;;7.21;84.52;100237.41;5070967;28;20245;-57
2022/03/17 00:19:39;;;;;;;57.33;36.90;;;;;;;7.21;83.88;100245.06;5070868;28;20193;-57
2022/03/17 00:22:09;;;;;;;50.07;36.30;;;;;;;7.10;84.33;100230.97;5070752;28;20195;-58
2022/03/17 00:24:37;;;;;;;49.60;35.77;;;;;;;7.11;84.74;100238.69;5070760;28;20274;-57
2022/03/17 00:27:08;;;;;;;44.93;35.30;;;;;;;7.06;84.95;100245.31;5070489;28;20248;-58
2022/03/17 00:29:35;;;;;;;48.50;34.23;;;;;;;6.91;83.90;100243.78;5070902;28;20697;-58
2022/03/17 00:32:02;;;;;;;44.37;33.80;;;;;;;6.92;84.11;100250.66;5070615;28;20758;-58
2022/03/17 00:34:29;;;;;;;43.60;33.13;;;;;;;6.94;84.63;100252.47;5071073;28;20216;-58
2022/03/17 00:36:57;;;;;;;44.97;32.63;;;;;;;6.77;84.73;100216.78;5070824;28;20668;-58
2022/03/17 00:39:26;;;;;;;43.10;32.53;;;;;;;6.98;84.05;100253.44;5070636;28;20640;-58
2022/03/17 00:41:53;;;;;;;43.10;33.07;;;;;;;6.97;84.45;100262.81;5070155;28;20194;-58
2022/03/17 00:44:20;;;;;;;41.07;31.70;;;;;;;6.90;84.24;100249.69;5070707;28;20589;-58
2022/03/17 00:46:47;;;;;;;42.53;37.80;;;;;;;6.99;84.45;100250.09;5069532;28;20433;-59
2022/03/17 00:49:14;;;;;;;40.20;31.97;;;;;;;7.06;83.77;100254.66;5070314;28;20669;-58
2022/03/17 00:51:41;;;;;;;37.37;30.37;;;;;;;7.11;83.08;100256.59;5069624;28;20198;-58
2022/03/17 00:54:08;;;;;;;37.13;29.17;;;;;;;7.09;82.49;100257.31;5070291;28;20196;-58
2022/03/17 00:56:36;;;;;;;36.37;28.97;;;;;;;6.98;82.81;100259.44;5070585;28;20613;-58
2022/03/17 00:59:03;;;;;;;34.37;27.27;;;;;;;6.98;82.40;100259.44;5070258;28;20234;-58
2022/03/17 01:01:30;;;;;;;41.07;28.03;;;;;;;6.96;82.62;100271.28;5070430;28;20647;-58
2022/03/17 01:03:57;;;;;;;36.93;29.67;;;;;;;6.95;82.58;100266.97;5069307;28;20253;-58
2022/03/17 01:06:24;;;;;;;39.17;29.47;;;;;;;6.95;83.33;100272.06;5070167;28;20194;-58
2022/03/17 01:08:51;;;;;;;40.87;29.33;;;;;;;6.93;83.21;100276.25;5070217;28;20292;-58
2022/03/17 01:11:18;;;;;;;40.67;30.03;;;;;;;6.96;83.62;100284.06;5075678;28;20198;-58
2022/03/17 01:13:46;;;;;;;39.80;29.40;;;;;;;6.81;82.87;100295.28;5078685;28;20288;-58
2022/03/17 01:16:13;;;;;;;41.57;30.40;;;;;;;6.78;83.46;100287.50;5072403;28;20286;-58
2022/03/17 01:18:40;;;;;;;42.27;32.43;;;;;;;6.71;84.96;100299.09;5070022;28;20198;-58
2022/03/17 01:21:07;;;;;;;42.07;31.70;;;;;;;6.63;85.57;100282.59;5070022;28;20300;-58
2022/03/17 01:23:34;;;;;;;49.15;38.80;;;;;;;6.67;85.65;100294.69;5069451;28;20912;-58
2022/03/17 01:26:01;;;;;;;43.70;34.30;;;;;;;6.72;86.89;100297.44;5070175;28;20660;-58
2022/03/17 01:28:28;;;;;;;44.30;33.83;;;;;;;6.65;86.78;100303.09;5069900;28;20682;-58
2022/03/17 01:30:56;;;;;;;44.03;34.90;;;;;;;6.61;87.45;100301.19;5068034;28;20194;-58
2022/03/17 01:33:23;;;;;;;46.20;35.53;;;;;;;6.64;87.90;100301.34;5070071;28;20208;-58
2022/03/17 01:35:50;;;;;;;46.10;34.60;;;;;;;6.65;87.40;100297.97;5070052;28;20217;-58
2022/03/17 01:38:17;;;;;;;48.20;34.63;;;;;;;6.60;87.57;100305.41;5074563;28;20227;-58
2022/03/17 01:40:44;;;;;;;44.23;35.43;;;;;;;6.50;88.47;100293.06;5073864;28;20201;-58
2022/03/17 01:43:11;;;;;;;45.00;35.23;;;;;;;6.56;88.90;100300.13;5070488;28;20194;-59
2022/03/17 01:45:38;;;;;;;46.47;35.50;;;;;;;6.57;88.30;100300.19;5069772;28;20195;-59
2022/03/17 01:48:07;;;;;;;47.00;37.57;;;;;;;6.54;88.49;100302.59;5069981;28;20187;-57
2022/03/17 01:50:34;;;;;;;48.97;36.77;;;;;;;6.51;89.34;100313.53;5069831;28;20207;-57
2022/03/17 01:53:01;;;;;;;48.10;36.53;;;;;;;6.61;88.86;100316.50;5070015;28;20192;-57
2022/03/17 01:55:29;;;;;;;46.70;36.47;;;;;;;6.61;89.02;100314.84;5073701;28;20279;-58
2022/03/17 01:57:57;;;;;;;47.33;37.60;;;;;;;6.61;89.60;100314.84;5073159;28;20097;-58
2022/03/17 02:00:24;;;;;;;49.27;35.10;;;;;;;6.47;89.85;100285.25;5073325;28;20233;-58
2022/03/17 02:02:53;;;;;;;58.97;38.37;;;;;;;6.68;89.04;100318.53;5073694;28;20189;-58
2022/03/17 02:05:21;;;;;;;51.37;40.23;;;;;;;6.65;89.93;100313.31;5073516;28;20348;-57
2022/03/17 02:07:50;;;;;;;52.63;39.97;;;;;;;6.69;89.51;100317.72;5073625;28;20201;-57
2022/03/17 02:10:17;;;;;;;57.53;42.60;;;;;;;6.70;89.56;100314.38;5072879;28;20192;-57
2022/03/17 02:15:30;;;;;;;55.90;39.53;;;;;;;6.69;90.11;100320.28;5079951;28;20182;-58
2022/03/17 02:17:57;;;;;;;56.03;41.07;;;;;;;6.78;90.62;100315.59;5083493;28;20574;-58
2022/03/17 02:20:26;;;;;;;54.10;41.00;;;;;;;6.77;91.14;100318.94;5079061;28;20196;-58
2022/03/17 02:25:33;;;;;;;58.83;41.27;;;;;;;6.78;90.83;100315.59;5081889;28;20193;-58
2022/03/17 02:25:44;;;;;;;52.50;45.53;;;;;;;6.84;89.89;100318.41;5071310;28;20425;-58
2022/03/17 02:28:11;;;;;;;49.60;39.97;;;;;;;6.83;89.12;100320.09;5072662;28;20577;-58
2022/03/17 02:30:39;;;;;;;55.67;39.93;;;;;;;6.85;88.85;100330.38;5072919;28;20669;-58
2022/03/17 02:33:07;;;;;;;54.93;40.87;;;;;;;6.80;89.66;100324.19;5073205;28;20198;-57
2022/03/17 02:35:35;;;;;;;51.25;44.40;;;;;;;6.78;89.94;100325.81;5072093;28;20452;-58
2022/03/17 02:38:03;;;;;;;46.43;37.73;;;;;;;6.76;89.23;100335.06;5072266;28;20311;-58
2022/03/17 02:40:31;;;;;;;46.23;36.43;;;;;;;6.84;89.67;100342.25;5072842;28;20665;-58
2022/03/17 02:42:59;;;;;;;54.60;35.80;;;;;;;6.85;89.34;100341.47;5053783;28;20674;-58
2022/03/17 02:45:26;;;;;;;47.90;36.10;;;;;;;6.81;89.61;100351.50;5053022;28;20210;-58
2022/03/17 02:47:53;;;;;;;45.50;35.67;;;;;;;6.68;88.88;100364.47;5052551;28;20701;-58
2022/03/17 02:50:21;;;;;;;43.53;34.17;;;;;;;6.67;89.35;100355.09;5071016;28;20201;-58
2022/03/17 02:52:48;;;;;;;48.53;35.83;;;;;;;6.77;89.40;100377.69;5072591;28;20197;-59
2022/03/17 02:55:15;;;;;;;41.50;31.00;;;;;;;6.78;89.79;100384.53;5072461;28;20213;-58
2022/03/17 02:57:44;;;;;;;45.73;33.37;;;;;;;6.77;89.09;100387.88;5072671;28;20223;-59
2022/03/17 03:00:14;;;;;;;48.30;35.80;;;;;;;6.79;89.88;100384.59;5065620;28;20232;-58
2022/03/17 03:02:41;;;;;;;46.80;38.55;;;;;;;6.87;90.09;100379.81;5065241;28;20441;-59
2022/03/17 03:05:09;;;;;;;44.20;37.50;;;;;;;6.85;89.53;100364.44;5072120;28;20196;-59
2022/03/17 03:07:36;;;;;;;46.67;37.23;;;;;;;6.98;89.43;100365.84;5072100;28;20664;-59
2022/03/17 03:10:04;;;;;;;44.30;34.43;;;;;;;7.08;88.94;100381.69;5072359;28;20205;-59
2022/03/17 03:12:31;;;;;;;42.80;34.33;;;;;;;7.12;89.25;100386.09;5072085;28;20201;-59
2022/03/17 03:14:58;;;;;;;44.30;34.17;;;;;;;7.18;88.47;100395.72;5072045;28;20281;-59
2022/03/17 03:17:27;;;;;;;42.33;31.70;;;;;;;7.20;89.04;100399.22;5071928;28;20225;-59
2022/03/17 03:19:54;;;;;;;46.67;34.43;;;;;;;7.20;88.24;100403.47;5071839;28;20198;-60
2022/03/17 03:22:21;;;;;;;40.17;32.43;;;;;;;7.20;88.77;100396.66;5071910;28;20201;-60
2022/03/17 03:24:48;;;;;;;45.47;32.47;;;;;;;7.23;88.10;100401.91;5071687;28;20664;-60
2022/03/17 03:27:15;;;;;;;41.17;31.97;;;;;;;7.24;88.67;100401.09;5071863;28;20277;-60
2022/03/17 03:29:43;;;;;;;42.00;32.53;;;;;;;7.28;89.22;100394.47;5071871;28;20737;-59
2022/03/17 03:32:10;;;;;;;42.70;31.57;;;;;;;7.25;89.42;100400.28;5071610;28;20281;-59
2022/03/17 03:34:39;;;;;;;40.00;30.70;;;;;;;7.28;89.22;100402.13;5071687;28;20199;-60
2022/03/17 03:37:23;;;;;;;35.37;29.43;;;;;;;7.24;88.77;100405.34;5071867;28;20236;-60
2022/03/17 03:39:52;;;;;;;39.57;28.77;;;;;;;7.29;88.64;100409.84;5071822;28;20209;-59
2022/03/17 03:42:19;;;;;;;36.90;28.77;;;;;;;7.28;88.76;100414.91;5071363;28;20677;-59
2022/03/17 03:44:46;;;;;;;41.07;29.93;;;;;;;7.12;88.93;100385.22;5071466;28;20199;-59
2022/03/17 03:47:14;;;;;;;36.57;28.93;;;;;;;7.33;88.44;100423.66;5071031;28;20198;-59
2022/03/17 03:49:42;;;;;;;43.05;36.08;;;;;;;7.35;88.67;100419.47;5070299;28;20444;-59
2022/03/17 03:52:11;;;;;;;42.30;31.77;;;;;;;7.38;88.21;100428.16;5071227;28;20198;-59
2022/03/17 03:54:38;;;;;;;41.23;32.33;;;;;;;7.46;88.58;100423.38;5071250;28;20325;-59
2022/03/17 03:57:06;;;;;;;40.43;30.97;;;;;;;7.44;87.56;100428.44;5071164;28;20190;-60
2022/03/17 03:59:34;;;;;;;39.47;30.80;;;;;;;7.47;87.69;100425.13;5071151;28;20598;-59
2022/03/17 04:02:02;;;;;;;39.67;32.43;;;;;;;7.44;87.63;100425.00;5070801;28;20209;-59
2022/03/17 04:04:30;;;;;;;42.90;31.83;;;;;;;7.53;88.13;100435.59;5071147;28;20208;-60
2022/03/17 04:07:01;;;;;;;41.37;31.37;;;;;;;7.56;87.35;100438.28;5071257;28;20191;-60
2022/03/17 04:09:33;;;;;;;39.43;30.57;;;;;;;7.48;86.48;100447.31;5071154;28;20233;-60
2022/03/17 04:12:00;;;;;;;36.50;29.20;;;;;;;7.50;87.04;100448.25;5070924;28;20570;-59
2022/03/17 04:14:28;;;;;;;41.00;31.37;;;;;;;7.52;86.66;100446.66;5070967;28;20191;-60
2022/03/17 04:16:55;;;;;;;41.07;30.47;;;;;;;7.45;86.01;100432.72;5070187;28;20195;-59
2022/03/17 04:19:22;;;;;;;37.97;29.97;;;;;;;7.46;86.73;100447.25;5070784;28;20233;-59
2022/03/17 04:21:50;;;;;;;40.80;29.50;;;;;;;7.48;86.97;100452.41;5070645;28;20194;-59
2022/03/17 04:24:19;;;;;;;38.37;28.60;;;;;;;7.49;86.61;100457.63;5070580;28;20195;-59
2022/03/17 04:26:46;;;;;;;41.47;33.70;;;;;;;7.48;87.19;100458.41;5069881;28;20437;-60
2022/03/17 04:29:14;;;;;;;30.87;24.70;;;;;;;7.56;86.48;100464.72;5070685;28;20197;-59
2022/03/17 04:31:42;;;;;;;31.37;23.80;;;;;;;7.54;86.37;100462.94;5070619;28;20202;-59
2022/03/17 04:34:11;;;;;;;34.03;26.03;;;;;;;7.56;86.61;100469.84;5070668;28;20296;-59
2022/03/17 04:36:38;;;;;;;34.37;28.17;;;;;;;7.57;86.28;100478.41;5070587;28;20603;-59
2022/03/17 04:39:06;;;;;;;33.77;26.00;;;;;;;7.56;85.71;100474.09;5070226;28;20701;-59
2022/03/17 04:41:34;;;;;;;29.37;22.47;;;;;;;7.61;85.12;100477.72;5070329;28;20197;-60
2022/03/17 04:44:01;;;;;;;27.37;21.43;;;;;;;7.57;84.94;100494.63;5070659;28;21005;-59
2022/03/17 04:46:28;;;;;;;24.67;20.70;;;;;;;7.58;84.98;100491.25;5070794;28;20191;-60
2022/03/17 04:48:55;;;;;;;27.80;21.40;;;;;;;7.64;84.28;100494.06;5075164;28;20989;-59
2022/03/17 04:51:26;;;;;;;29.67;22.37;;;;;;;7.69;83.81;100496.84;5075055;28;20331;-60
2022/03/17 04:53:53;;;;;;;28.90;21.67;;;;;;;7.73;84.32;100501.28;5069446;28;20675;-60
2022/03/17 04:56:20;;;;;;;27.90;21.37;;;;;;;7.78;84.05;100504.03;5070378;28;20747;-61
2022/03/17 04:58:48;;;;;;;26.50;22.30;;;;;;;7.78;83.11;100504.03;5070094;28;20223;-59
2022/03/17 05:01:15;;;;;;;24.73;20.87;;;;;;;7.79;83.56;100510.91;5070047;28;20285;-60
2022/03/17 05:03:43;;;;;;;26.13;23.33;;;;;;;7.81;83.37;100515.28;5068948;28;20441;-60
2022/03/17 05:06:12;;;;;;;22.33;19.27;;;;;;;7.86;82.57;100523.13;5068171;28;20191;-58
2022/03/17 05:08:39;;;;;;;22.80;20.00;;;;;;;7.82;82.26;100521.28;5067871;28;20665;-58
2022/03/17 05:11:07;;;;;;;23.83;18.27;;;;;;;7.85;82.26;100527.41;5067745;28;20300;-58
2022/03/17 05:13:35;;;;;;;27.80;20.53;;;;;;;7.80;82.11;100522.91;5067673;28;20191;-59
2022/03/17 05:16:04;;;;;;;22.07;18.30;;;;;;;7.78;82.12;100527.03;5067956;28;20673;-58
2022/03/17 05:18:31;;;;;;;23.70;20.33;;;;;;;7.82;83.17;100523.81;5067637;28;20699;-59
2022/03/17 05:20:58;;;;;;;27.87;22.63;;;;;;;7.80;83.68;100533.13;5067517;28;20683;-60
2022/03/17 05:23:25;;;;;;;28.70;24.13;;;;;;;7.76;83.19;100529.56;5067710;28;20689;-58
2022/03/17 05:25:53;;;;;;;32.03;26.87;;;;;;;7.75;84.10;100534.63;5067881;28;20217;-61
2022/03/17 05:28:20;;;;;;;33.10;25.70;;;;;;;7.69;84.96;100536.06;5069862;28;20194;-59
2022/03/17 05:30:47;;;;;;;31.77;25.87;;;;;;;7.60;85.75;100561.25;5072893;28;20221;-59
2022/03/17 05:33:16;;;;;;;32.57;25.67;;;;;;;7.51;85.61;100549.72;5073440;28;20210;-61
2022/03/17 05:35:44;;;;;;;34.73;27.80;;;;;;;7.54;86.30;100544.75;5073844;28;20573;-59
2022/03/17 05:38:12;;;;;;;33.47;26.60;;;;;;;7.55;86.88;100544.81;5073608;28;20696;-58
2022/03/17 05:40:39;;;;;;;33.10;26.73;;;;;;;7.53;86.58;100546.44;5073769;28;20199;-59
2022/03/17 05:43:08;;;;;;;38.27;27.37;;;;;;;7.58;86.16;100552.63;5073576;28;20638;-59
2022/03/17 05:45:36;;;;;;;30.63;25.67;;;;;;;7.59;86.41;100559.50;5073354;28;20204;-59
2022/03/17 05:48:05;;;;;;;31.83;24.63;;;;;;;7.60;85.85;100560.38;5073162;28;20284;-59
2022/03/17 05:50:34;;;;;;;32.07;26.77;;;;;;;7.60;86.14;100563.81;5073564;28;20830;-59
2022/03/17 05:53:02;;;;;;;34.97;27.63;;;;;;;7.61;85.62;100567.22;5073456;28;20292;-59
2022/03/17 05:55:29;;;;;;;33.57;27.90;;;;;;;7.54;85.96;100578.00;5073063;28;20300;-59
2022/03/17 05:57:57;;;;;;;34.23;27.40;;;;;;;7.61;86.28;100573.22;5073135;28;20224;-60
2022/03/17 06:00:26;;;;;;;33.50;27.33;;;;;;;7.63;86.03;100574.19;5073145;28;20235;-58
2022/03/17 06:02:53;;;;;;;33.27;26.57;;;;;;;7.68;85.49;100572.72;5073249;28;20629;-59
2022/03/17 06:05:21;;;;;;;34.23;27.27;;;;;;;7.69;85.83;100583.81;5073243;28;20279;-58
2022/03/17 06:07:51;;;;;;;32.33;26.57;;;;;;;7.73;85.87;100590.81;5072840;28;20230;-58
2022/03/17 06:10:21;;;;;;;36.27;29.17;;;;;;;7.71;85.74;100598.44;5072960;28;20195;-59
2022/03/17 06:12:51;;;;;;;35.77;29.67;;;;;;;7.66;85.47;100599.88;5072809;28;20194;-59
2022/03/17 06:15:19;;;;;;;41.05;31.05;;;;;;;7.64;86.21;100603.16;5072848;28;20463;-58
2022/03/17 06:17:48;;;;;;;38.00;29.30;;;;;;;7.62;85.82;100608.22;5072430;28;20281;-63
2022/03/17 06:20:17;;;;;;;39.60;33.00;;;;;;;7.67;85.49;100616.97;5063374;28;20605;-58
2022/03/17 06:22:45;;;;;;;40.43;30.57;;;;;;;7.66;86.16;100616.94;5059096;28;20299;-59
2022/03/17 06:25:15;;;;;;;36.97;29.20;;;;;;;7.66;86.35;100622.88;5055506;28;20191;-59
2022/03/17 06:27:43;;;;;;;38.97;30.10;;;;;;;7.73;86.17;100627.50;5072546;28;20202;-59
2022/03/17 06:30:12;;;;;;;35.43;27.83;;;;;;;7.73;85.90;100621.50;5072446;28;20210;-59
2022/03/17 06:32:40;;;;;;;37.03;29.33;;;;;;;7.79;85.70;100632.03;5072533;28;20198;-59
2022/03/17 06:35:09;;;;;;;34.97;28.10;;;;;;;7.74;85.20;100636.06;5072409;28;20582;-59
2022/03/17 06:37:36;;;;;;;36.37;28.20;;;;;;;7.86;85.55;100651.06;5072316;28;20259;-58
2022/03/17 06:40:04;;;;;;;41.10;31.80;;;;;;;7.85;84.85;100663.00;5071409;28;20310;-58
2022/03/17 06:42:32;;;;;;;37.20;30.47;;;;;;;7.91;84.79;100660.69;5072493;28;20203;-58
2022/03/17 06:44:59;;;;;;;34.53;27.73;;;;;;;7.94;84.92;100665.09;5072332;28;20209;-58
2022/03/17 06:47:26;;;;;;;34.77;28.20;;;;;;;7.90;84.72;100681.13;5071686;28;20320;-58
2022/03/17 06:49:53;;;;;;;34.37;29.60;;;;;;;7.86;84.90;100674.97;5071546;28;20202;-59
2022/03/17 06:52:20;;;;;;;40.58;34.38;;;;;;;7.91;84.85;100680.31;5071577;28;20441;-59
2022/03/17 06:54:47;;;;;;;40.87;32.87;;;;;;;7.99;84.60;100679.88;5071895;28;20213;-58
2022/03/17 06:57:17;;;;;;;37.50;28.80;;;;;;;8.02;83.12;100685.09;5071714;28;20294;-58
2022/03/17 06:59:46;;;;;;;42.03;30.27;;;;;;;7.96;81.11;100689.97;5071758;28;20608;-58
2022/03/17 07:02:13;;;;;;;39.23;29.50;;;;;;;7.91;80.80;100686.28;5072040;28;20207;-59
2022/03/17 07:04:40;;;;;;;36.53;28.97;;;;;;;7.94;79.40;100698.38;5071858;28;20274;-58
2022/03/17 07:07:07;;;;;;;36.00;29.03;;;;;;;7.99;78.67;100700.34;5071767;28;20286;-58
2022/03/17 07:09:34;;;;;;;35.90;28.40;;;;;;;8.08;79.05;100693.06;5072009;28;20270;-59
2022/03/17 07:12:01;;;;;;;38.03;27.50;;;;;;;8.08;77.41;100694.72;5071838;28;20198;-58
2022/03/17 07:14:28;;;;;;;39.20;28.53;;;;;;;8.07;77.33;100699.00;5071736;28;20191;-58
2022/03/17 07:16:57;;;;;;;39.03;29.33;;;;;;;8.14;78.08;100711.25;5071587;28;20688;-60
2022/03/17 07:19:24;;;;;;;35.40;27.03;;;;;;;8.14;77.48;100706.13;5071645;28;20218;-58
2022/03/17 07:21:51;;;;;;;37.53;27.90;;;;;;;8.05;76.30;100702.25;5071324;28;20179;-60
2022/03/17 07:24:19;;;;;;;34.93;27.53;;;;;;;8.04;75.41;100708.22;5071326;28;20656;-58
2022/03/17 07:26:46;;;;;;;38.20;28.27;;;;;;;7.99;75.69;100712.25;5069880;28;20191;-58
2022/03/17 07:29:13;;;;;;;40.40;29.87;;;;;;;8.09;75.75;100714.41;5082735;28;20302;-59
2022/03/17 07:31:39;;;;;;;37.90;28.27;;;;;;;8.00;75.01;100727.66;5082158;28;21062;-60
2022/03/17 07:34:08;;;;;;;36.80;27.43;;;;;;;7.88;74.54;100726.22;5080665;28;20195;-59
2022/03/17 07:36:35;;;;;;;41.13;28.07;;;;;;;7.80;74.29;100732.69;5080346;28;20198;-59
2022/03/17 07:39:02;;;;;;;40.27;28.30;;;;;;;7.86;75.08;100730.38;5077433;28;20208;-58
2022/03/17 07:41:30;;;;;;;40.30;30.10;;;;;;;7.98;74.92;100734.41;5080825;28;20771;-58
2022/03/17 07:43:57;;;;;;;40.03;28.90;;;;;;;7.98;73.58;100738.63;5077560;28;20201;-59
2022/03/17 07:46:24;;;;;;;43.33;32.10;;;;;;;8.08;74.01;100735.69;5058789;28;20209;-59
2022/03/17 07:48:50;;;;;;;41.67;28.90;;;;;;;7.98;74.54;100743.75;5050799;28;20195;-59
2022/03/17 07:51:20;;;;;;;37.20;27.47;;;;;;;8.11;73.97;100743.50;5049746;28;20208;-59
2022/03/17 07:53:46;;;;;;;41.27;28.77;;;;;;;8.15;73.18;100737.72;5048620;28;20217;-59
2022/03/17 07:56:14;;;;;;;38.20;33.20;;;;;;;8.23;73.55;100732.16;5047878;28;20442;-59
2022/03/17 07:58:42;;;;;;;38.60;29.70;;;;;;;8.56;72.59;100753.31;5048762;28;20220;-58
2022/03/17 08:01:09;;;;;;;41.43;31.63;;;;;;;8.71;72.39;100751.41;5049106;28;20230;-59
2022/03/17 08:03:35;;;;;;;41.47;30.23;;;;;;;8.81;72.50;100756.13;5048571;28;20192;-60
2022/03/17 08:06:02;;;;;;;39.57;30.07;;;;;;;8.79;70.93;100760.28;5049550;28;20231;-59
2022/03/17 08:08:31;;;;;;;42.80;30.87;;;;;;;8.69;71.43;100760.72;5049856;28;20188;-60
2022/03/17 08:10:58;;;;;;;38.77;28.50;;;;;;;8.27;70.89;100698.22;5050440;28;20688;-59
2022/03/17 08:13:25;;;;;;;45.37;30.83;;;;;;;8.79;71.33;100770.53;5050419;28;20207;-59
2022/03/17 08:15:52;;;;;;;37.57;29.07;;;;;;;8.87;71.14;100774.31;5050243;28;20249;-58
2022/03/17 08:18:19;;;;;;;38.80;28.13;;;;;;;8.66;70.57;100775.94;5050386;28;20301;-59
2022/03/17 08:20:46;;;;;;;39.57;27.83;;;;;;;8.69;70.60;100776.09;5050200;28;20273;-59
2022/03/17 08:23:19;;;;;;;42.73;29.83;;;;;;;8.73;71.39;100783.13;5050221;28;20282;-58
2022/03/17 08:25:49;;;;;;;45.03;32.20;;;;;;;8.71;70.54;100778.69;5050259;28;20656;-59
2022/03/17 08:28:17;;;;;;;47.53;31.93;;;;;;;8.65;70.83;100781.88;5049991;28;20239;-59
2022/03/17 08:30:46;;;;;;;44.90;32.23;;;;;;;8.70;70.68;100785.53;5050356;28;20200;-59
2022/03/17 08:33:14;;;;;;;43.43;31.83;;;;;;;8.93;71.15;100775.41;5050092;28;20199;-59
2022/03/17 08:35:41;;;;;;;39.23;29.27;;;;;;;9.07;69.56;100779.41;5050172;28;20198;-60
2022/03/17 08:38:08;;;;;;;43.73;30.77;;;;;;;8.93;69.49;100783.97;5050244;28;20697;-60
2022/03/17 08:40:38;;;;;;;38.47;29.03;;;;;;;8.86;69.02;100780.28;5049778;28;20324;-58
2022/03/17 08:43:06;;;;;;;44.92;36.92;;;;;;;9.09;69.69;100781.22;5049009;28;20557;-58
2022/03/17 08:51:03;;;;;;;43.33;31.80;;;;;;;9.63;67.41;100789.47;5049872;28;20657;-59
2022/03/17 08:53:29;;;;;;;43.33;31.43;;;;;;;9.45;66.66;100784.47;5049888;28;20615;-59
2022/03/17 08:55:57;;;;;;;42.03;30.73;;;;;;;9.53;67.24;100788.25;5049829;28;20562;-59
2022/03/17 08:58:26;;;;;;;43.93;31.80;;;;;;;9.55;66.98;100791.75;5049634;28;20283;-59
2022/03/17 09:00:54;;;;;;;43.90;32.67;;;;;;;9.79;67.04;100795.28;5050010;28;20278;-59
2022/03/17 09:03:21;;;;;;;43.73;32.23;;;;;;;9.95;66.79;100789.06;5049489;28;20199;-59
2022/03/17 09:05:48;;;;;;;41.93;31.37;;;;;;;10.07;66.89;100793.00;5050028;28;20188;-59
2022/03/17 09:08:15;;;;;;;44.22;34.92;;;;;;;10.29;65.72;100789.59;5049324;28;21012;-59
2022/03/17 09:10:42;;;;;;;47.23;33.37;;;;;;;10.46;65.56;100791.13;5049820;28;20199;-59
2022/03/17 09:13:09;;;;;;;45.40;33.00;;;;;;;10.34;63.11;100803.50;5049777;28;20236;-59
2022/03/17 09:15:40;;;;;;;44.00;30.90;;;;;;;10.16;63.04;100794.22;5050009;28;20642;-59
2022/03/17 09:18:09;;;;;;;44.42;34.20;;;;;;;10.23;63.57;100796.19;5049219;28;20539;-58
2022/03/17 09:20:36;;;;;;;41.37;31.33;;;;;;;10.21;63.79;100797.81;5049722;28;20211;-58
2022/03/17 09:23:03;;;;;;;47.43;31.37;;;;;;;10.08;63.54;100806.69;5049249;28;20629;-59
2022/03/17 09:25:30;;;;;;;46.17;32.53;;;;;;;10.21;64.24;100803.84;5049795;28;20703;-59
2022/03/17 09:27:57;;;;;;;48.70;32.97;;;;;;;10.20;64.82;100811.47;5049520;28;20593;-59
2022/03/17 09:30:24;;;;;;;41.77;30.70;;;;;;;9.95;62.54;100810.47;5049274;28;20194;-58
2022/03/17 09:32:54;;;;;;;43.43;31.20;;;;;;;9.83;63.09;100817.69;5049341;28;20717;-59
2022/03/17 09:35:22;;;;;;;45.50;30.17;;;;;;;9.70;63.23;100815.44;5049444;28;20195;-59
2022/03/17 09:37:50;;;;;;;47.20;32.00;;;;;;;9.43;64.23;100815.19;5049274;28;20199;-59
2022/03/17 09:40:17;;;;;;;45.67;32.30;;;;;;;9.35;63.86;100821.69;5049267;28;20227;-59
2022/03/17 09:42:44;;;;;;;49.83;31.33;;;;;;;9.46;65.15;100824.69;5057067;28;20203;-59
2022/03/17 09:45:12;;;;;;;49.63;31.83;;;;;;;9.58;65.46;100824.34;5059876;28;20197;-60
2022/03/17 09:47:41;;;;;;;48.70;33.77;;;;;;;9.59;65.49;100826.06;5068892;28;20194;-60
2022/03/17 09:50:13;;;;;;;46.30;33.07;;;;;;;9.57;64.62;100825.16;5078890;28;20277;-59
2022/03/17 09:52:42;;;;;;;49.73;33.17;;;;;;;9.57;64.90;100835.41;5076627;28;20274;-59
2022/03/17 09:55:11;;;;;;;46.17;32.93;;;;;;;9.60;65.16;100826.16;5078422;28;20200;-59
2022/03/17 09:57:38;;;;;;;47.23;31.70;;;;;;;9.60;64.75;100826.16;5076130;28;20187;-59
2022/03/17 10:00:07;;;;;;;47.40;32.43;;;;;;;9.71;64.84;100832.59;5076012;28;20264;-60
2022/03/17 10:02:35;;;;;;;47.40;31.53;;;;;;;9.81;64.32;100834.72;5069616;28;20210;-59
2022/03/17 10:05:03;;;;;;;52.10;31.07;;;;;;;9.84;64.81;100837.41;5069367;28;20283;-58
2022/03/17 10:07:35;;;;;;;52.13;32.27;;;;;;;9.89;64.06;100835.91;5069189;28;20195;-59
2022/03/17 10:10:02;;;;;;;54.53;31.93;;;;;;;9.66;63.88;100795.63;5068742;28;20287;-59
2022/03/17 10:12:30;;;;;;;52.67;33.17;;;;;;;9.96;64.12;100837.91;5069059;28;20654;-59
2022/03/17 10:14:58;;;;;;;44.57;31.30;;;;;;;9.99;64.51;100838.06;5070476;28;20195;-58
2022/03/17 10:17:35;;;;;;;53.27;31.53;;;;;;;9.87;63.41;100839.22;5077447;28;20205;-58
2022/03/17 10:20:17;;;;;;;46.13;31.27;;;;;;;9.80;62.81;100834.69;5074112;28;20227;-59
2022/03/17 10:22:47;;;;;;;45.00;31.30;;;;;;;9.97;63.48;100837.09;5052662;28;20192;-59
2022/03/17 10:25:15;;;;;;;41.23;31.13;;;;;;;10.14;63.48;100839.47;5052533;28;20188;-59
2022/03/17 10:27:45;;;;;;;43.73;30.77;;;;;;;10.18;63.04;100841.38;5076672;28;20226;-60
2022/03/17 10:30:12;;;;;;;38.97;28.77;;;;;;;10.11;62.05;100834.22;5082926;28;20195;-59
2022/03/17 10:32:40;;;;;;;44.33;35.53;;;;;;;10.06;61.39;100841.72;5077323;28;20824;-59
2022/03/17 10:35:09;;;;;;;43.90;32.47;;;;;;;10.11;61.35;100829.09;5081593;28;20245;-60
2022/03/17 10:37:37;;;;;;;43.23;31.00;;;;;;;10.23;62.02;100837.28;5082742;28;20730;-61
2022/03/17 10:40:11;;;;;;;46.07;30.80;;;;;;;10.20;62.26;100838.03;5082005;28;20203;-60
2022/03/17 10:42:39;;;;;;;40.87;29.10;;;;;;;10.22;61.18;100836.41;5072838;28;20496;-60
2022/03/17 10:45:08;;;;;;;38.43;30.10;;;;;;;10.33;61.52;100836.84;5072230;28;20206;-60
2022/03/17 10:47:37;;;;;;;42.03;29.27;;;;;;;10.37;60.99;100844.72;5069608;28;20193;-60
2022/03/17 10:50:07;;;;;;;47.33;29.20;;;;;;;10.37;60.79;100846.41;5072628;28;20770;-60
2022/03/17 10:52:55;;;;;;;46.63;30.80;;;;;;;10.36;60.79;100849.78;5082975;28;20383;-60
2022/03/17 10:55:26;;;;;;;46.40;28.23;;;;;;;10.13;60.50;100819.78;5072224;28;20207;-61
2022/03/17 10:57:56;;;;;;;38.67;27.67;;;;;;;9.80;61.16;100857.78;5071815;28;20221;-61
2022/03/17 11:00:25;;;;;;;37.40;26.90;;;;;;;9.84;61.30;100847.69;5071920;28;20234;-60
2022/03/17 11:02:56;;;;;;;39.87;29.63;;;;;;;10.10;61.77;100838.47;5071907;28;20286;-60
2022/03/17 11:05:24;;;;;;;44.70;28.77;;;;;;;10.30;60.86;100840.13;5071928;28;20219;-60
2022/03/17 11:07:53;;;;;;;40.97;33.85;;;;;;;10.03;60.95;100839.03;5071071;28;20433;-59
2022/03/17 11:10:22;;;;;;;44.77;31.50;;;;;;;10.43;60.68;100831.22;5072125;28;20274;-60
2022/03/17 11:12:50;;;;;;;39.57;28.67;;;;;;;10.73;58.70;100836.63;5071819;28;20195;-61
2022/03/17 11:15:26;;;;;;;40.27;30.47;;;;;;;10.77;57.62;100838.50;5071253;28;20199;-60
2022/03/17 11:17:55;;;;;;;40.43;28.20;;;;;;;10.86;58.93;100832.00;5072102;28;20555;-59
2022/03/17 11:20:24;;;;;;;43.37;29.37;;;;;;;10.85;57.59;100826.81;5071502;28;20305;-60
2022/03/17 11:23:06;;;;;;;41.00;28.27;;;;;;;10.89;57.76;100828.66;5071452;28;20191;-60
2022/03/17 11:25:35;;;;;;;48.57;28.17;;;;;;;10.92;57.68;100829.66;5071579;28;20638;-60
2022/03/17 11:28:05;;;;;;;41.73;29.20;;;;;;;10.90;58.32;100831.31;5071282;28;20191;-61